createdAt,value
2019-05-03T00:02:35.504Z,9.22
2019-05-03T00:05:12.526Z,9.13
2019-05-03T00:07:42.282Z,9.12
2019-05-03T00:10:12.885Z,9.11
2019-05-03T00:12:42.653Z,9.10
2019-05-03T00:15:23.291Z,9.10
2019-05-03T00:17:52.934Z,9.17
2019-05-03T00:20:22.551Z,9.26
2019-05-03T00:22:52.465Z,9.31
2019-05-03T00:25:24.961Z,9.25
2019-05-03T00:27:54.648Z,9.11
2019-05-03T00:30:24.265Z,9.10
2019-05-03T00:32:53.931Z,9.07
2019-05-03T00:35:33.837Z,9.04
2019-05-03T00:38:05.871Z,9.05
2019-05-03T00:40:35.492Z,9.09
2019-05-03T00:43:05.163Z,9.09
2019-05-03T00:45:34.992Z,9.11
2019-05-03T00:48:04.605Z,9.09
2019-05-03T00:50:34.212Z,9.07
2019-05-03T00:53:05.016Z,9.09
2019-05-03T00:55:34.621Z,9.10
2019-05-03T00:58:04.362Z,9.07
2019-05-03T01:00:34.009Z,9.01
2019-05-03T01:03:03.615Z,8.89
2019-05-03T01:05:33.265Z,8.86
2019-05-03T01:08:02.962Z,8.83
2019-05-03T01:10:33.130Z,8.84
2019-05-03T01:13:03.000Z,8.80
2019-05-03T01:15:51.954Z,8.80
2019-05-03T01:18:22.458Z,8.78
2019-05-03T01:20:52.346Z,8.72
2019-05-03T01:23:22.057Z,8.68
2019-05-03T01:25:51.771Z,8.59
2019-05-03T01:28:21.660Z,8.57
2019-05-03T01:30:51.896Z,8.52
2019-05-03T01:33:22.592Z,8.49
2019-05-03T01:35:52.302Z,8.46
2019-05-03T01:38:22.682Z,8.43
2019-05-03T01:40:52.429Z,8.41
2019-05-03T01:43:22.311Z,8.36
2019-05-03T01:45:52.338Z,8.34
2019-05-03T01:48:35.686Z,8.31
2019-05-03T01:51:24.807Z,8.26
2019-05-03T01:53:54.413Z,8.22
2019-05-03T01:56:25.005Z,8.14
2019-05-03T01:58:54.656Z,8.15
2019-05-03T02:01:44.392Z,8.19
2019-05-03T02:04:15.715Z,8.09
2019-05-03T02:06:45.800Z,8.03
2019-05-03T02:09:15.401Z,7.96
2019-05-03T02:11:45.055Z,7.95
2019-05-03T02:14:14.666Z,7.88
2019-05-03T02:16:44.272Z,7.87
2019-05-03T02:19:13.923Z,7.86
2019-05-03T02:21:43.658Z,7.86
2019-05-03T02:24:13.629Z,7.83
2019-05-03T02:26:43.319Z,7.85
2019-05-03T02:29:12.924Z,7.83
2019-05-03T02:31:43.858Z,7.83
2019-05-03T02:34:14.300Z,7.78
2019-05-03T02:36:43.917Z,7.72
2019-05-03T02:39:15.177Z,7.72
2019-05-03T02:41:48.379Z,7.75
2019-05-03T02:44:17.814Z,7.73
2019-05-03T02:46:52.057Z,7.62
2019-05-03T02:49:25.517Z,7.67
2019-05-03T02:51:55.630Z,7.70
2019-05-03T02:54:26.845Z,7.68
2019-05-03T02:56:57.973Z,7.71
2019-05-03T02:59:28.450Z,7.69
2019-05-03T03:01:58.433Z,7.72
2019-05-03T03:04:28.108Z,7.71
2019-05-03T03:06:59.068Z,7.68
2019-05-03T03:09:30.028Z,7.72
2019-05-03T03:12:00.614Z,7.69
2019-05-03T03:14:32.503Z,7.69
2019-05-03T03:17:06.644Z,7.67
2019-05-03T03:19:38.000Z,7.65
2019-05-03T03:22:11.062Z,7.59
2019-05-03T03:24:45.806Z,7.58
2019-05-03T03:27:18.453Z,7.57
2019-05-03T03:29:51.122Z,7.59
2019-05-03T03:32:29.592Z,7.60
2019-05-03T03:35:20.312Z,7.57
2019-05-03T03:37:46.381Z,7.57
2019-05-03T03:40:17.989Z,7.54
2019-05-03T03:42:50.905Z,7.51
2019-05-03T03:45:20.626Z,7.50
2019-05-03T03:47:56.115Z,7.40
2019-05-03T03:50:26.192Z,7.28
2019-05-03T03:52:59.155Z,7.24
2019-05-03T03:55:35.331Z,7.25
2019-05-03T03:58:06.429Z,7.21
2019-05-03T04:00:36.555Z,7.16
2019-05-03T04:03:07.679Z,7.17
2019-05-03T04:05:38.038Z,7.14
2019-05-03T04:08:07.733Z,7.08
2019-05-03T04:10:38.373Z,6.99
2019-05-03T04:13:09.841Z,6.92
2019-05-03T04:15:41.758Z,6.93
2019-05-03T04:18:16.185Z,6.93
2019-05-03T04:20:45.865Z,6.92
2019-05-03T04:23:16.365Z,6.88
2019-05-03T04:25:46.480Z,7.00
2019-05-03T04:28:16.488Z,7.16
2019-05-03T04:30:46.184Z,7.33
2019-05-03T04:33:16.655Z,7.49
2019-05-03T04:35:46.640Z,7.58
2019-05-03T04:38:16.577Z,7.65
2019-05-03T04:40:46.272Z,7.53
2019-05-03T04:43:16.992Z,7.53
2019-05-03T04:45:48.247Z,7.57
2019-05-03T04:48:17.885Z,7.63
2019-05-03T04:50:47.513Z,7.68
2019-05-03T04:53:17.115Z,7.78
2019-05-03T04:55:47.050Z,7.89
2019-05-03T04:58:16.758Z,7.99
2019-05-03T05:00:46.726Z,8.04
2019-05-03T05:03:16.469Z,8.05
2019-05-03T05:05:46.156Z,8.07
2019-05-03T05:08:16.384Z,8.05
2019-05-03T05:10:46.325Z,8.07
2019-05-03T05:13:17.033Z,8.06
2019-05-03T05:15:46.673Z,7.92
2019-05-03T05:18:21.082Z,7.70
2019-05-03T05:20:55.569Z,7.57
2019-05-03T05:23:25.282Z,7.54
2019-05-03T05:26:05.635Z,7.43
2019-05-03T05:28:48.718Z,7.39
2019-05-03T05:31:18.844Z,7.34
2019-05-03T05:33:48.529Z,7.21
2019-05-03T05:36:18.144Z,7.24
2019-05-03T05:38:47.840Z,7.33
2019-05-03T05:41:17.449Z,7.41
2019-05-03T05:43:47.061Z,7.40
2019-05-03T05:46:17.386Z,7.41
2019-05-03T05:48:51.224Z,7.53
2019-05-03T05:51:21.727Z,7.66
2019-05-03T05:53:51.668Z,7.79
2019-05-03T05:56:24.959Z,7.93
2019-05-03T05:58:55.890Z,8.05
2019-05-03T06:01:27.199Z,8.09
2019-05-03T06:03:56.892Z,8.06
2019-05-03T06:06:45.107Z,8.08
2019-05-03T06:09:16.573Z,8.17
2019-05-03T06:11:47.833Z,8.27
2019-05-03T06:14:19.151Z,8.32
2019-05-03T06:16:50.417Z,8.34
2019-05-03T06:19:21.669Z,8.37
2019-05-03T06:21:55.455Z,8.33
2019-05-03T06:24:32.574Z,8.33
2019-05-03T06:27:06.569Z,8.39
2019-05-03T06:29:37.060Z,8.49
2019-05-03T06:32:08.436Z,8.59
2019-05-03T06:34:38.127Z,8.63
2019-05-03T06:37:12.385Z,8.60
2019-05-03T06:39:45.485Z,8.60
2019-05-03T06:42:19.124Z,8.63
2019-05-03T06:44:46.469Z,8.70
2019-05-03T06:47:16.080Z,8.79
2019-05-03T06:49:48.468Z,8.89
2019-05-03T06:52:19.750Z,9.00
2019-05-03T06:54:48.438Z,9.10
2019-05-03T06:57:19.333Z,9.18
2019-05-03T06:59:50.590Z,9.22
2019-05-03T07:02:21.860Z,9.27
2019-05-03T07:04:58.758Z,9.35
2019-05-03T07:07:30.035Z,9.37
2019-05-03T07:10:05.027Z,9.39
2019-05-03T07:12:54.705Z,9.42
2019-05-03T07:15:25.345Z,9.44
2019-05-03T07:17:55.609Z,9.41
2019-05-03T07:20:27.092Z,9.40
2019-05-03T07:22:56.765Z,9.42
2019-05-03T07:25:26.544Z,9.52
2019-05-03T07:28:07.002Z,9.62
2019-05-03T07:30:38.154Z,9.61
2019-05-03T07:33:09.530Z,9.62
2019-05-03T07:35:41.044Z,9.60
2019-05-03T07:38:10.786Z,9.57
2019-05-03T07:40:40.481Z,9.52
2019-05-03T07:43:11.210Z,9.50
2019-05-03T07:45:40.823Z,9.48
2019-05-03T07:48:10.492Z,9.51
2019-05-03T07:50:40.251Z,9.56
2019-05-03T07:53:10.089Z,9.60
2019-05-03T07:55:56.604Z,9.66
2019-05-03T07:58:35.162Z,9.78
2019-05-03T08:01:09.781Z,9.80
2019-05-03T08:03:38.709Z,9.85
2019-05-03T08:06:08.417Z,9.86
2019-05-03T08:08:40.965Z,9.81
2019-05-03T08:11:10.638Z,9.84
2019-05-03T08:13:40.514Z,9.96
2019-05-03T08:16:10.347Z,10.07
2019-05-03T08:18:40.055Z,10.14
2019-05-03T08:21:09.811Z,10.21
2019-05-03T08:23:39.476Z,10.29
2019-05-03T08:26:09.108Z,10.25
2019-05-03T08:28:38.729Z,10.21
2019-05-03T08:31:15.821Z,10.13
2019-05-03T08:33:50.409Z,10.05
2019-05-03T08:36:21.355Z,10.07
2019-05-03T08:38:51.046Z,10.13
2019-05-03T08:41:25.380Z,10.17
2019-05-03T08:43:55.428Z,10.18
2019-05-03T08:46:25.685Z,10.14
2019-05-03T08:48:55.295Z,10.05
2019-05-03T08:51:25.197Z,10.03
2019-05-03T08:53:56.018Z,10.07
2019-05-03T08:56:25.797Z,10.20
2019-05-03T08:58:55.650Z,10.34
2019-05-03T09:01:25.999Z,10.44
2019-05-03T09:03:58.827Z,10.48
2019-05-03T09:06:28.520Z,10.46
2019-05-03T09:08:58.181Z,10.34
2019-05-03T09:11:33.549Z,10.16
2019-05-03T09:14:01.154Z,10.11
2019-05-03T09:16:31.146Z,10.13
2019-05-03T09:19:00.932Z,10.18
2019-05-03T09:21:30.621Z,10.18
2019-05-03T09:24:04.709Z,10.14
2019-05-03T09:26:35.102Z,10.03
2019-05-03T09:29:05.665Z,9.91
2019-05-03T09:31:35.411Z,9.89
2019-05-03T09:34:08.045Z,9.95
2019-05-03T09:36:36.766Z,9.99
2019-05-03T09:39:08.255Z,10.09
2019-05-03T09:41:37.877Z,10.28
2019-05-03T09:44:07.560Z,10.41
2019-05-03T09:46:37.189Z,10.41
2019-05-03T09:49:12.779Z,10.42
2019-05-03T09:51:38.349Z,10.46
2019-05-03T09:54:15.632Z,10.48
2019-05-03T09:56:58.778Z,10.50
2019-05-03T09:59:29.724Z,10.53
2019-05-03T10:01:59.835Z,10.55
2019-05-03T10:04:29.488Z,10.52
2019-05-03T10:06:59.215Z,10.57
2019-05-03T10:09:28.900Z,10.60
2019-05-03T10:11:59.277Z,10.61
2019-05-03T10:14:30.252Z,10.61
2019-05-03T10:17:19.653Z,10.64
2019-05-03T10:19:49.324Z,10.62
2019-05-03T10:22:22.004Z,10.65
2019-05-03T10:24:51.896Z,10.69
2019-05-03T10:27:21.686Z,10.74
2019-05-03T10:29:51.396Z,10.78
2019-05-03T10:32:25.690Z,10.88
2019-05-03T10:34:56.999Z,10.94
2019-05-03T10:37:35.682Z,10.95
2019-05-03T10:40:08.122Z,10.96
2019-05-03T10:42:38.223Z,10.95
2019-05-03T10:45:09.392Z,10.91
2019-05-03T10:47:39.076Z,10.85
2019-05-03T10:50:09.010Z,10.81
2019-05-03T10:52:44.717Z,10.79
2019-05-03T10:55:15.950Z,10.81
2019-05-03T10:57:47.473Z,10.81
2019-05-03T11:00:42.456Z,10.92
2019-05-03T11:02:55.081Z,11.06
2019-05-03T11:05:24.975Z,11.07
2019-05-03T11:07:55.613Z,10.98
2019-05-03T11:10:25.541Z,10.90
2019-05-03T11:12:55.238Z,10.92
2019-05-03T11:15:25.907Z,10.99
2019-05-03T11:17:55.661Z,11.11
2019-05-03T11:20:32.124Z,11.25
2019-05-03T11:23:02.823Z,11.35
2019-05-03T11:25:34.460Z,11.37
2019-05-03T11:28:06.934Z,11.38
2019-05-03T11:30:36.557Z,11.36
2019-05-03T11:33:07.817Z,11.35
2019-05-03T11:35:44.913Z,11.34
2019-05-03T11:38:16.311Z,11.36
2019-05-03T11:40:48.172Z,11.33
2019-05-03T11:43:19.570Z,11.33
2019-05-03T11:45:49.333Z,11.35
2019-05-03T11:48:25.315Z,11.47
2019-05-03T11:50:56.065Z,11.68
2019-05-03T11:53:26.065Z,11.75
2019-05-03T11:58:50.621Z,11.52
2019-05-03T12:01:28.018Z,11.45
2019-05-03T12:03:57.951Z,11.43
2019-05-03T12:06:36.941Z,11.71
2019-05-03T12:09:09.379Z,12.14
2019-05-03T12:11:41.084Z,12.53
2019-05-03T12:14:12.418Z,12.70
2019-05-03T12:17:19.135Z,12.94
2019-05-03T12:19:38.230Z,13.03
2019-05-03T12:22:09.251Z,12.95
2019-05-03T12:24:39.951Z,12.88
2019-05-03T12:27:10.017Z,12.66
2019-05-03T12:29:39.715Z,12.50
2019-05-03T13:01:40.642Z,14.82
2019-05-03T13:03:59.753Z,17.03
2019-05-03T13:06:31.017Z,17.74
2019-05-03T13:09:00.672Z,16.73
2019-05-03T13:11:34.702Z,15.69
2019-05-03T13:14:04.791Z,14.86
2019-05-03T13:16:35.411Z,14.39
2019-05-03T13:19:05.632Z,16.73
2019-05-03T13:21:35.676Z,18.45
2019-05-03T13:24:05.603Z,18.29
2019-05-03T13:26:35.352Z,18.48
2019-05-03T13:29:05.853Z,18.51
2019-05-03T13:31:35.753Z,18.43
2019-05-03T13:34:05.731Z,17.10
2019-05-03T13:36:35.457Z,16.54
2019-05-03T13:39:13.896Z,16.27
2019-05-03T13:41:38.493Z,15.69
2019-05-03T13:44:08.128Z,16.71
2019-05-03T13:46:37.826Z,19.24
2019-05-03T13:49:08.836Z,18.26
2019-05-03T13:51:38.554Z,17.06
2019-05-03T13:54:08.209Z,16.17
2019-05-03T13:56:37.836Z,15.57
2019-05-03T13:59:18.477Z,15.06
2019-05-03T14:01:38.847Z,14.66
2019-05-03T14:04:08.497Z,14.53
2019-05-03T14:06:38.140Z,14.20
2019-05-03T14:09:07.817Z,14.27
2019-05-03T14:11:38.954Z,14.73
2019-05-03T14:14:08.663Z,15.00
2019-05-03T14:16:38.308Z,14.94
2019-05-03T14:19:12.315Z,15.07
2019-05-03T14:21:43.621Z,15.25
2019-05-03T14:24:15.614Z,15.09
2019-05-03T14:26:44.978Z,15.34
2019-05-03T14:29:15.075Z,15.52
2019-05-03T14:31:45.565Z,15.45
2019-05-03T14:34:17.472Z,15.20
2019-05-03T14:36:46.631Z,14.97
2019-05-03T14:39:16.356Z,14.69
2019-05-03T14:41:46.923Z,14.43
2019-05-03T14:44:18.116Z,14.10
2019-05-03T14:46:48.182Z,13.86
2019-05-03T14:49:17.791Z,13.76
2019-05-03T14:51:47.510Z,13.52
2019-05-03T14:54:21.757Z,13.28
2019-05-03T14:57:09.293Z,13.18
2019-05-03T14:59:56.728Z,13.24
2019-05-03T15:02:40.900Z,13.28
2019-05-03T15:05:02.310Z,13.51
2019-05-03T15:07:31.980Z,13.55
2019-05-03T15:10:01.622Z,13.49
2019-05-03T15:12:31.253Z,13.33
2019-05-03T15:15:01.148Z,13.21
2019-05-03T15:17:30.773Z,13.07
2019-05-03T15:20:00.416Z,12.97
2019-05-03T15:22:30.064Z,12.92
2019-05-03T15:24:59.763Z,12.87
2019-05-03T15:27:30.965Z,12.84
2019-05-03T15:30:00.632Z,12.91
2019-05-03T15:32:30.257Z,13.28
2019-05-03T15:35:00.663Z,13.31
2019-05-03T15:37:30.342Z,13.29
2019-05-03T15:39:59.972Z,13.21
2019-05-03T15:42:29.869Z,13.12
2019-05-03T15:45:07.068Z,13.01
2019-05-03T15:47:38.685Z,12.91
2019-05-03T15:50:08.943Z,12.77
2019-05-03T15:52:38.660Z,12.65
2019-05-03T15:55:08.699Z,12.56
2019-05-03T15:57:38.373Z,12.47
2019-05-03T16:00:10.040Z,12.36
2019-05-03T16:02:39.669Z,12.31
2019-05-03T16:05:09.302Z,12.23
2019-05-03T16:07:39.176Z,12.13
2019-05-03T16:10:08.865Z,12.09
2019-05-03T16:12:38.481Z,12.01
2019-05-03T16:15:08.494Z,11.94
2019-05-03T16:17:38.089Z,11.89
2019-05-03T16:20:08.133Z,11.86
2019-05-03T16:22:37.821Z,11.81
2019-05-03T16:25:08.459Z,11.75
2019-05-03T16:27:39.720Z,11.70
2019-05-03T16:30:11.490Z,11.62
2019-05-03T16:32:41.139Z,11.59
2019-05-03T16:35:14.871Z,11.57
2019-05-03T16:37:45.227Z,11.54
2019-05-03T16:40:16.758Z,11.52
2019-05-03T16:42:46.718Z,11.50
2019-05-03T16:45:17.069Z,11.47
2019-05-03T16:47:46.816Z,11.45
2019-05-03T16:50:16.789Z,11.41
2019-05-03T16:52:46.447Z,11.39
2019-05-03T16:55:16.399Z,11.38
2019-05-03T16:57:46.302Z,11.38
2019-05-03T17:00:17.838Z,11.37
2019-05-03T17:02:47.638Z,11.37
2019-05-03T17:05:21.718Z,11.35
2019-05-03T17:08:09.602Z,11.32
2019-05-03T17:10:45.375Z,11.30
2019-05-03T17:13:14.833Z,11.27
2019-05-03T17:15:44.636Z,11.26
2019-05-03T17:18:14.688Z,11.23
2019-05-03T17:20:45.689Z,11.22
2019-05-03T17:23:15.535Z,11.15
2019-05-03T17:25:45.156Z,11.08
2019-05-03T17:28:15.702Z,10.61
2019-05-03T17:30:45.506Z,10.05
2019-05-03T17:33:16.115Z,9.59
2019-05-03T17:35:45.851Z,9.43
2019-05-03T17:38:15.771Z,9.39
2019-05-03T17:41:04.322Z,9.24
2019-05-03T17:43:38.430Z,9.18
2019-05-03T17:46:09.921Z,9.04
2019-05-03T17:48:39.548Z,9.01
2019-05-03T17:51:10.887Z,8.86
2019-05-03T17:53:54.792Z,8.78
2019-05-03T17:56:32.072Z,8.72
2019-05-03T17:59:09.037Z,8.66
2019-05-03T18:01:58.066Z,8.75
2019-05-03T18:04:41.482Z,8.92
2019-05-03T18:07:15.473Z,8.96
2019-05-03T18:09:46.756Z,9.08
2019-05-03T18:12:17.596Z,9.13
2019-05-03T18:14:47.633Z,9.22
2019-05-03T18:17:18.519Z,9.24
2019-05-03T18:19:48.250Z,9.18
2019-05-03T18:22:18.047Z,9.11
2019-05-03T18:24:47.892Z,9.06
2019-05-03T18:27:17.528Z,9.04
2019-05-03T18:29:47.287Z,9.04
2019-05-03T18:32:16.947Z,8.97
2019-05-03T18:34:46.572Z,9.03
2019-05-03T18:37:16.242Z,9.01
2019-05-03T18:39:45.879Z,9.04
2019-05-03T18:42:20.100Z,9.05
2019-05-03T18:44:51.737Z,9.02
2019-05-03T18:47:22.992Z,8.88
2019-05-03T18:49:54.858Z,8.68
2019-05-03T18:52:24.666Z,8.56
2019-05-03T18:54:55.132Z,8.52
2019-05-03T18:57:25.559Z,8.36
2019-05-03T18:59:55.707Z,8.33
2019-05-03T19:02:25.809Z,8.29
2019-05-03T19:04:56.033Z,8.21
2019-05-03T19:07:45.265Z,8.13
2019-05-03T19:10:26.018Z,8.10
2019-05-03T19:12:57.321Z,7.99
2019-05-03T19:15:27.113Z,8.00
2019-05-03T19:17:58.374Z,8.01
2019-05-03T19:20:28.136Z,7.92
2019-05-03T19:22:58.128Z,7.81
2019-05-03T19:25:27.755Z,7.80
2019-05-03T19:27:57.427Z,7.72
2019-05-03T19:30:27.169Z,7.63
2019-05-03T19:32:57.059Z,7.56
2019-05-03T19:35:27.664Z,7.53
2019-05-03T19:37:57.726Z,7.52
2019-05-03T19:40:27.345Z,7.54
2019-05-03T19:42:57.029Z,7.54
2019-05-03T19:45:26.663Z,7.43
2019-05-03T19:47:56.413Z,7.39
2019-05-03T19:50:27.264Z,7.32
2019-05-03T19:53:11.348Z,7.29
2019-05-03T19:55:40.992Z,7.25
2019-05-03T19:58:10.734Z,7.21
2019-05-03T20:00:51.196Z,7.13
2019-05-03T20:03:24.691Z,7.07
2019-05-03T20:05:55.433Z,7.08
2019-05-03T20:08:27.014Z,7.09
2019-05-03T20:10:58.280Z,7.05
2019-05-03T20:13:34.594Z,7.07
2019-05-03T20:15:59.357Z,7.06
2019-05-03T20:18:28.979Z,7.03
2019-05-03T20:20:58.602Z,7.00
2019-05-03T20:23:28.262Z,6.98
2019-05-03T20:25:57.892Z,6.98
2019-05-03T20:28:27.505Z,6.98
2019-05-03T20:30:57.212Z,6.99
2019-05-03T20:33:26.878Z,6.97
2019-05-03T20:36:00.174Z,6.98
2019-05-03T20:38:33.828Z,6.96
2019-05-03T20:41:08.918Z,6.93
2019-05-03T20:43:58.048Z,6.91
2019-05-03T20:46:43.540Z,6.91
2019-05-03T20:49:16.860Z,6.90
2019-05-03T20:51:51.405Z,6.89
2019-05-03T20:54:35.037Z,6.89
2019-05-03T20:57:05.940Z,6.85
2019-05-03T20:59:48.691Z,6.79
2019-05-03T21:02:17.272Z,6.78
2019-05-03T21:04:47.051Z,6.81
2019-05-03T21:07:16.715Z,6.84
2019-05-03T21:09:46.361Z,6.82
2019-05-03T21:12:16.459Z,6.88
2019-05-03T21:14:46.090Z,6.85
2019-05-03T21:17:34.570Z,6.86
2019-05-03T21:20:10.981Z,6.85
2019-05-03T21:22:44.277Z,6.86
2019-05-03T21:25:15.696Z,6.81
2019-05-03T21:27:45.362Z,6.76
2019-05-03T21:30:15.210Z,6.68
2019-05-03T21:32:44.799Z,6.62
2019-05-03T21:35:14.858Z,6.60
2019-05-03T21:37:45.404Z,6.60
2019-05-03T21:40:15.619Z,6.58
2019-05-03T21:42:45.403Z,6.53
2019-05-03T21:45:16.998Z,6.46
2019-05-03T21:47:48.510Z,6.43
2019-05-03T21:50:19.600Z,6.40
2019-05-03T21:52:49.313Z,6.38
2019-05-03T21:55:18.934Z,6.36
2019-05-03T21:57:48.627Z,6.36
2019-05-03T22:00:19.825Z,6.37
2019-05-03T22:02:49.847Z,6.34
2019-05-03T22:05:20.823Z,6.32
2019-05-03T22:07:56.587Z,6.32
2019-05-03T22:10:26.287Z,6.30
2019-05-03T22:12:55.899Z,6.29
2019-05-03T22:15:27.218Z,6.30
2019-05-03T22:21:07.111Z,6.26
2019-05-03T22:23:40.757Z,6.25
2019-05-03T22:26:10.563Z,6.27
2019-05-03T22:28:40.212Z,6.24
2019-05-03T22:31:09.831Z,6.20
2019-05-03T22:33:39.445Z,6.18
2019-05-03T22:36:09.199Z,6.16
2019-05-03T22:38:39.859Z,6.18
2019-05-03T22:41:09.508Z,6.17
2019-05-03T22:43:39.357Z,6.16
2019-05-03T22:46:09.040Z,6.16
2019-05-03T22:48:39.599Z,6.13
2019-05-03T22:51:09.627Z,6.14
2019-05-03T22:53:39.411Z,6.20
2019-05-03T22:56:09.828Z,6.23
2019-05-03T22:58:39.479Z,6.27
2019-05-03T23:01:09.148Z,6.29
2019-05-03T23:03:45.414Z,6.31
2019-05-03T23:06:22.132Z,6.34
2019-05-03T23:08:46.355Z,6.36
2019-05-03T23:11:16.034Z,6.33
2019-05-03T23:13:47.297Z,6.26
2019-05-03T23:16:16.909Z,6.32
2019-05-03T23:18:46.732Z,6.31
2019-05-03T23:21:20.838Z,6.30
2019-05-03T23:23:52.018Z,6.30
2019-05-03T23:26:21.686Z,6.25
2019-05-03T23:28:51.373Z,6.26
2019-05-03T23:31:21.062Z,6.22
2019-05-03T23:33:50.718Z,6.27
2019-05-03T23:36:32.506Z,6.35
2019-05-03T23:38:51.636Z,6.35
2019-05-03T23:41:21.983Z,6.40
2019-05-03T23:43:51.587Z,6.46
2019-05-03T23:46:22.846Z,6.51
2019-05-03T23:48:52.592Z,6.55
2019-05-03T23:51:40.319Z,6.53
2019-05-03T23:54:10.430Z,6.56
2019-05-03T23:56:40.110Z,6.52
2019-05-03T23:59:09.756Z,6.49
